createdAt,value
2022-12-17T00:01:06.970Z,43.43
2022-12-17T00:03:52.878Z,46.30
2022-12-17T00:06:42.337Z,45.87
2022-12-17T00:09:28.233Z,44.90
2022-12-17T00:12:13.401Z,41.97
2022-12-17T00:14:58.998Z,48.33
2022-12-17T00:17:44.410Z,46.37
2022-12-17T00:20:30.112Z,41.43
2022-12-17T00:23:19.763Z,41.67
2022-12-17T00:26:12.400Z,43.90
2022-12-17T00:28:58.513Z,44.73
2022-12-17T00:31:47.534Z,45.87
2022-12-17T00:34:33.332Z,45.83
2022-12-17T00:37:18.917Z,47.90
2022-12-17T00:40:04.206Z,47.53
2022-12-17T00:42:49.722Z,47.47
2022-12-17T00:45:34.937Z,46.47
2022-12-17T00:48:20.207Z,46.67
2022-12-17T00:51:05.496Z,48.07
2022-12-17T00:53:50.902Z,46.40
2022-12-17T00:56:36.506Z,44.80
2022-12-17T00:59:21.668Z,44.30
2022-12-17T01:02:07.353Z,43.27
2022-12-17T01:04:52.588Z,40.43
2022-12-17T01:07:38.231Z,43.37
2022-12-17T01:10:24.184Z,41.10
2022-12-17T01:13:09.592Z,42.87
2022-12-17T01:15:55.577Z,49.75
2022-12-17T01:18:42.212Z,44.87
2022-12-17T01:21:27.649Z,44.27
2022-12-17T01:24:13.100Z,42.70
2022-12-17T01:26:58.410Z,41.07
2022-12-17T01:29:43.691Z,42.63
2022-12-17T01:32:33.656Z,45.67
2022-12-17T01:35:19.126Z,43.30
2022-12-17T01:38:04.824Z,48.40
2022-12-17T01:40:49.947Z,48.30
2022-12-17T01:43:50.936Z,44.40
2022-12-17T01:46:36.520Z,47.40
2022-12-17T01:49:22.045Z,45.30
2022-12-17T01:52:10.259Z,41.60
2022-12-17T01:54:57.051Z,43.87
2022-12-17T01:57:44.520Z,45.23
2022-12-17T02:00:32.788Z,42.40
2022-12-17T02:03:18.859Z,41.37
2022-12-17T02:06:43.687Z,45.43
2022-12-17T02:10:05.143Z,47.43
2022-12-17T02:13:05.620Z,44.43
2022-12-17T02:16:14.984Z,41.67
2022-12-17T02:19:09.473Z,47.73
2022-12-17T02:21:57.670Z,46.37
2022-12-17T02:25:06.497Z,45.03
2022-12-17T02:27:53.555Z,52.50
2022-12-17T02:30:38.884Z,46.63
2022-12-17T02:33:25.094Z,44.93
2022-12-17T02:36:16.286Z,44.23
2022-12-17T02:39:01.762Z,41.53
2022-12-17T02:42:03.798Z,45.70
2022-12-17T02:44:50.180Z,44.90
2022-12-17T02:47:37.087Z,39.57
2022-12-17T02:50:23.681Z,43.00
2022-12-17T02:53:08.985Z,42.57
2022-12-17T02:55:55.940Z,37.73
2022-12-17T02:58:42.926Z,38.27
2022-12-17T03:01:28.331Z,42.97
2022-12-17T03:04:13.803Z,43.43
2022-12-17T03:06:59.132Z,45.30
2022-12-17T03:09:44.646Z,42.80
2022-12-17T03:12:30.246Z,37.07
2022-12-17T03:15:15.957Z,40.93
2022-12-17T03:18:01.297Z,42.87
2022-12-17T03:20:46.724Z,40.70
2022-12-17T03:23:32.235Z,40.57
2022-12-17T03:26:22.738Z,40.43
2022-12-17T03:29:08.351Z,41.50
2022-12-17T03:31:53.640Z,38.90
2022-12-17T03:34:39.171Z,39.23
2022-12-17T03:37:24.537Z,39.57
2022-12-17T03:40:09.711Z,41.43
2022-12-17T03:42:55.225Z,41.07
2022-12-17T03:45:40.814Z,44.10
2022-12-17T03:48:32.361Z,40.50
2022-12-17T03:51:18.577Z,46.60
2022-12-17T03:54:04.836Z,38.67
2022-12-17T03:56:50.853Z,41.97
2022-12-17T03:59:36.226Z,38.90
2022-12-17T04:02:21.845Z,44.50
2022-12-17T04:05:07.648Z,44.03
2022-12-17T04:07:52.985Z,39.37
2022-12-17T04:10:38.172Z,40.63
2022-12-17T04:13:23.663Z,44.83
2022-12-17T04:16:09.170Z,39.70
2022-12-17T04:18:54.409Z,43.93
2022-12-17T04:21:39.762Z,44.97
2022-12-17T04:24:25.407Z,43.97
2022-12-17T04:27:10.890Z,38.00
2022-12-17T04:29:56.437Z,42.07
2022-12-17T04:32:58.753Z,45.90
2022-12-17T04:35:43.682Z,42.80
2022-12-17T04:38:29.249Z,43.47
2022-12-17T04:41:14.665Z,42.10
2022-12-17T04:44:03.294Z,40.97
2022-12-17T04:46:49.276Z,44.37
2022-12-17T04:49:34.447Z,39.50
2022-12-17T04:52:19.634Z,36.37
2022-12-17T04:55:05.114Z,41.13
2022-12-17T04:57:50.635Z,44.23
2022-12-17T05:00:36.215Z,44.47
2022-12-17T05:03:52.718Z,35.73
2022-12-17T05:06:37.907Z,42.60
2022-12-17T05:09:23.276Z,42.17
2022-12-17T05:12:08.712Z,40.03
2022-12-17T05:14:54.232Z,40.80
2022-12-17T05:17:39.686Z,44.57
2022-12-17T05:20:25.273Z,41.33
2022-12-17T05:23:10.752Z,44.37
2022-12-17T05:25:56.162Z,40.30
2022-12-17T05:28:41.648Z,43.30
2022-12-17T05:31:27.702Z,46.70
2022-12-17T05:34:12.949Z,44.00
2022-12-17T05:36:59.759Z,43.23
2022-12-17T05:39:45.163Z,45.83
2022-12-17T05:42:30.754Z,47.45
2022-12-17T05:45:16.100Z,39.60
2022-12-17T05:48:01.570Z,39.17
2022-12-17T05:50:46.841Z,42.87
2022-12-17T05:53:32.396Z,42.50
2022-12-17T05:56:17.587Z,42.67
2022-12-17T05:59:03.063Z,47.28
2022-12-17T06:01:48.297Z,42.73
2022-12-17T06:04:33.610Z,44.77
2022-12-17T06:07:19.313Z,44.33
2022-12-17T06:10:04.690Z,42.80
2022-12-17T06:12:50.003Z,39.77
2022-12-17T06:15:35.844Z,38.77
2022-12-17T06:18:21.250Z,42.23
2022-12-17T06:21:07.376Z,45.80
2022-12-17T06:23:52.940Z,44.40
2022-12-17T06:26:38.371Z,49.87
2022-12-17T06:29:23.977Z,38.57
2022-12-17T06:32:09.366Z,43.03
2022-12-17T06:34:54.947Z,44.20
2022-12-17T06:37:40.448Z,45.37
2022-12-17T06:40:26.342Z,40.90
2022-12-17T06:43:13.464Z,38.57
2022-12-17T06:45:58.986Z,42.90
2022-12-17T06:48:44.531Z,38.37
2022-12-17T06:51:29.836Z,46.87
2022-12-17T06:54:15.301Z,46.07
2022-12-17T06:57:00.864Z,43.07
2022-12-17T06:59:45.841Z,44.00
2022-12-17T07:02:31.658Z,44.77
2022-12-17T07:05:16.941Z,41.87
2022-12-17T07:08:02.390Z,45.47
2022-12-17T07:10:47.929Z,37.20
2022-12-17T07:13:33.472Z,46.17
2022-12-17T07:16:18.946Z,42.97
2022-12-17T07:19:04.110Z,41.93
2022-12-17T07:21:49.551Z,43.50
2022-12-17T07:24:34.915Z,43.90
2022-12-17T07:27:20.393Z,45.80
2022-12-17T07:30:05.676Z,47.20
2022-12-17T07:32:51.330Z,41.07
2022-12-17T07:35:37.727Z,40.83
2022-12-17T07:38:24.080Z,44.73
2022-12-17T07:41:09.520Z,40.63
2022-12-17T07:43:55.126Z,40.73
2022-12-17T07:46:40.556Z,41.30
2022-12-17T07:49:26.451Z,42.50
2022-12-17T07:52:12.305Z,42.50
2022-12-17T07:54:57.500Z,43.20
2022-12-17T07:57:43.949Z,39.60
2022-12-17T08:00:29.925Z,42.80
2022-12-17T08:03:16.990Z,41.03
2022-12-17T08:06:03.173Z,48.53
2022-12-17T08:08:48.406Z,44.97
2022-12-17T08:11:34.240Z,44.23
2022-12-17T08:14:19.830Z,45.40
2022-12-17T08:17:05.454Z,44.57
2022-12-17T08:19:50.865Z,39.73
2022-12-17T08:22:36.459Z,45.13
2022-12-17T08:25:22.010Z,46.87
2022-12-17T08:28:15.741Z,42.30
2022-12-17T08:31:08.035Z,42.23
2022-12-17T08:33:54.073Z,40.93
2022-12-17T08:36:39.601Z,44.10
2022-12-17T08:39:25.129Z,45.93
2022-12-17T08:42:10.677Z,42.77
2022-12-17T08:44:56.065Z,39.07
2022-12-17T08:47:42.554Z,47.90
2022-12-17T08:50:28.020Z,54.00
2022-12-17T08:53:17.671Z,44.40
2022-12-17T08:56:03.122Z,43.20
2022-12-17T08:58:48.490Z,42.60
2022-12-17T09:01:34.127Z,47.43
2022-12-17T09:04:19.578Z,44.57
2022-12-17T09:07:05.077Z,43.57
2022-12-17T09:09:50.497Z,41.47
2022-12-17T09:12:36.004Z,44.93
2022-12-17T09:15:21.457Z,41.20
2022-12-17T09:18:07.042Z,44.27
2022-12-17T09:20:52.552Z,48.27
2022-12-17T09:23:38.333Z,45.80
2022-12-17T09:26:24.294Z,41.33
2022-12-17T09:29:09.668Z,45.37
2022-12-17T09:31:58.184Z,45.87
2022-12-17T09:34:43.610Z,53.47
2022-12-17T09:37:29.263Z,44.30
2022-12-17T09:40:14.732Z,45.57
2022-12-17T09:43:15.198Z,44.53
2022-12-17T09:46:23.785Z,49.60
2022-12-17T09:49:27.306Z,51.40
2022-12-17T09:52:17.508Z,37.58
2022-12-17T09:55:07.108Z,42.63
2022-12-17T09:57:54.660Z,46.70
2022-12-17T10:00:45.566Z,38.07
2022-12-17T10:03:40.392Z,41.40
2022-12-17T10:06:30.621Z,44.63
2022-12-17T10:09:18.923Z,48.37
2022-12-17T10:12:04.876Z,43.43
2022-12-17T10:14:50.212Z,38.77
2022-12-17T10:17:40.565Z,45.10
2022-12-17T10:20:50.719Z,45.87
2022-12-17T10:23:47.697Z,44.00
2022-12-17T10:26:36.384Z,42.23
2022-12-17T10:29:24.440Z,38.87
2022-12-17T10:32:10.121Z,37.17
2022-12-17T10:35:01.774Z,40.90
2022-12-17T10:37:53.179Z,37.50
2022-12-17T10:40:48.284Z,37.70
2022-12-17T10:43:45.907Z,35.08
2022-12-17T10:46:40.714Z,36.10
2022-12-17T10:49:41.342Z,37.00
2022-12-17T10:52:45.891Z,38.33
2022-12-17T10:55:43.518Z,37.47
2022-12-17T10:58:37.122Z,33.45
2022-12-17T11:01:23.673Z,34.47
2022-12-17T11:04:14.828Z,35.10
2022-12-17T11:07:14.303Z,29.85
2022-12-17T11:10:09.571Z,32.15
2022-12-17T11:13:06.793Z,32.10
2022-12-17T11:15:56.351Z,32.00
2022-12-17T11:18:47.921Z,34.63
2022-12-17T11:21:41.595Z,31.85
2022-12-17T11:24:35.801Z,31.75
2022-12-17T11:27:25.317Z,30.83
2022-12-17T11:30:10.666Z,33.00
2022-12-17T11:33:02.407Z,30.45
2022-12-17T11:35:51.313Z,30.25
2022-12-17T11:39:03.897Z,30.30
2022-12-17T11:42:11.429Z,32.05
2022-12-17T11:45:23.154Z,31.33
2022-12-17T11:48:19.687Z,29.05
2022-12-17T11:51:36.447Z,34.08
2022-12-17T11:54:40.678Z,29.92
2022-12-17T12:00:42.039Z,28.60
2022-12-17T12:03:39.383Z,30.92
2022-12-17T12:06:51.628Z,31.08
2022-12-17T12:10:06.938Z,31.95
2022-12-17T12:12:55.342Z,32.55
2022-12-17T12:16:03.873Z,31.45
2022-12-17T12:19:05.933Z,31.02
2022-12-17T12:22:00.609Z,29.33
2022-12-17T12:25:17.525Z,30.45
2022-12-17T12:28:28.235Z,34.63
2022-12-17T12:31:27.328Z,31.95
2022-12-17T12:34:24.704Z,27.48
2022-12-17T12:37:11.413Z,28.10
2022-12-17T12:40:05.670Z,31.05
2022-12-17T12:42:56.261Z,29.33
2022-12-17T12:46:05.999Z,31.30
2022-12-17T12:49:03.541Z,28.40
2022-12-17T12:51:53.501Z,27.63
2022-12-17T12:55:08.288Z,32.00
2022-12-17T12:57:56.256Z,26.63
2022-12-17T13:00:44.316Z,30.08
2022-12-17T13:03:40.116Z,30.05
2022-12-17T13:06:08.637Z,33.55
2022-12-17T13:08:36.088Z,29.67
2022-12-17T13:11:30.345Z,28.08
2022-12-17T13:14:06.192Z,29.75
2022-12-17T13:16:53.763Z,31.90
2022-12-17T13:19:31.275Z,30.35
2022-12-17T13:22:21.985Z,31.77
2022-12-17T13:24:57.008Z,28.02
2022-12-17T13:27:36.203Z,25.45
2022-12-17T13:30:18.091Z,27.67
2022-12-17T13:33:02.084Z,27.90
2022-12-17T13:36:01.994Z,26.67
2022-12-17T13:39:08.018Z,29.60
2022-12-17T13:41:36.260Z,30.17
2022-12-17T13:44:20.557Z,25.13
2022-12-17T13:46:49.385Z,24.08
2022-12-17T13:49:36.502Z,24.10
2022-12-17T13:52:17.669Z,24.08
2022-12-17T13:54:45.087Z,23.40
2022-12-17T13:57:26.196Z,25.38
2022-12-17T13:59:58.516Z,21.13
2022-12-17T14:02:32.403Z,26.88
2022-12-17T14:05:07.424Z,22.55
2022-12-17T14:07:38.893Z,24.27
2022-12-17T14:10:13.892Z,23.92
2022-12-17T14:12:40.746Z,24.45
2022-12-17T14:15:28.203Z,21.02
2022-12-17T14:17:56.432Z,22.02
2022-12-17T14:20:26.439Z,21.17
2022-12-17T14:22:56.433Z,24.77
2022-12-17T14:25:26.935Z,24.27
2022-12-17T14:27:57.331Z,25.42
2022-12-17T14:30:42.946Z,28.98
2022-12-17T14:33:31.267Z,31.48
2022-12-17T14:36:00.462Z,25.05
2022-12-17T14:38:37.999Z,25.65
2022-12-17T14:41:31.186Z,28.83
2022-12-17T14:44:00.057Z,27.45
2022-12-17T14:46:28.866Z,23.08
2022-12-17T14:49:01.112Z,24.20
2022-12-17T14:51:36.850Z,26.67
2022-12-17T14:54:20.384Z,28.70
2022-12-17T14:59:24.214Z,28.80
2022-12-17T15:01:56.162Z,32.15
2022-12-17T15:04:23.785Z,42.50
2022-12-17T15:06:53.887Z,39.70
2022-12-17T15:09:20.668Z,32.55
2022-12-17T15:11:47.618Z,34.95
2022-12-17T15:14:14.346Z,36.85
2022-12-17T15:16:41.202Z,27.27
2022-12-17T15:19:08.018Z,34.63
2022-12-17T15:21:34.942Z,38.27
2022-12-17T15:24:01.715Z,34.30
2022-12-17T15:26:28.716Z,33.83
2022-12-17T15:28:55.494Z,33.40
2022-12-17T15:31:26.006Z,30.37
2022-12-17T15:33:54.368Z,41.88
2022-12-17T15:36:21.086Z,36.23
2022-12-17T15:38:47.932Z,40.33
2022-12-17T15:41:33.441Z,48.37
2022-12-17T15:44:00.259Z,29.50
2022-12-17T15:46:27.029Z,32.70
2022-12-17T15:48:53.753Z,32.37
2022-12-17T15:51:21.088Z,36.30
2022-12-17T15:53:48.302Z,30.97
2022-12-17T15:56:24.456Z,39.20
2022-12-17T15:58:51.547Z,35.93
2022-12-17T16:01:19.673Z,39.60
2022-12-17T16:03:46.596Z,39.80
2022-12-17T16:06:13.483Z,39.90
2022-12-17T16:08:41.016Z,45.67
2022-12-17T16:11:09.297Z,33.23
2022-12-17T16:13:37.192Z,32.50
2022-12-17T16:16:05.128Z,38.50
2022-12-17T16:18:32.168Z,39.73
2022-12-17T16:21:03.399Z,40.57
2022-12-17T16:23:30.444Z,40.60
2022-12-17T16:26:01.791Z,42.90
2022-12-17T16:28:29.732Z,53.07
2022-12-17T16:31:14.682Z,49.30
2022-12-17T16:33:43.724Z,45.07
2022-12-17T16:36:13.685Z,32.33
2022-12-17T16:38:58.852Z,30.17
2022-12-17T16:41:25.888Z,41.37
2022-12-17T16:43:52.757Z,42.67
2022-12-17T16:46:29.486Z,43.70
2022-12-17T16:48:59.525Z,39.60
2022-12-17T16:51:29.170Z,36.77
2022-12-17T16:53:57.998Z,32.90
2022-12-17T16:56:28.605Z,36.93
2022-12-17T16:58:56.317Z,37.87
2022-12-17T17:01:26.389Z,38.70
2022-12-17T17:03:54.319Z,55.43
2022-12-17T17:06:21.757Z,41.17
2022-12-17T17:08:49.024Z,44.13
2022-12-17T17:11:19.280Z,41.87
2022-12-17T17:13:46.063Z,51.70
2022-12-17T17:16:12.932Z,82.67
2022-12-17T17:18:40.236Z,40.23
2022-12-17T17:21:20.125Z,44.40
2022-12-17T17:23:48.189Z,41.93
2022-12-17T17:26:15.894Z,38.43
2022-12-17T17:28:44.537Z,40.97
2022-12-17T17:31:13.464Z,40.63
2022-12-17T17:33:43.911Z,41.40
2022-12-17T17:36:16.930Z,36.93
2022-12-17T17:38:43.829Z,57.87
2022-12-17T17:41:13.829Z,60.80
2022-12-17T17:43:40.777Z,48.13
2022-12-17T17:46:10.346Z,60.80
2022-12-17T17:48:37.756Z,37.47
2022-12-17T17:51:12.343Z,34.47
2022-12-17T17:53:39.620Z,43.83
2022-12-17T17:56:17.657Z,54.20
2022-12-17T17:58:49.744Z,42.03
2022-12-17T18:01:19.530Z,40.92
2022-12-17T18:03:46.419Z,34.80
2022-12-17T18:06:14.420Z,32.00
2022-12-17T18:08:42.104Z,38.80
2022-12-17T18:11:12.140Z,39.57
2022-12-17T18:13:54.896Z,35.40
2022-12-17T18:16:26.632Z,29.60
2022-12-17T18:18:56.401Z,40.75
2022-12-17T18:21:24.110Z,45.50
2022-12-17T18:24:00.473Z,48.83
2022-12-17T18:26:30.095Z,28.50
2022-12-17T18:28:58.585Z,33.83
2022-12-17T18:31:27.158Z,25.87
2022-12-17T18:33:58.075Z,57.10
2022-12-17T18:36:39.971Z,54.10
2022-12-17T18:39:08.583Z,52.00
2022-12-17T18:41:53.877Z,49.77
2022-12-17T18:44:21.159Z,67.50
2022-12-17T18:46:48.096Z,50.90
2022-12-17T18:49:16.490Z,44.80
2022-12-17T18:51:45.074Z,37.27
2022-12-17T18:54:14.981Z,34.23
2022-12-17T18:57:03.939Z,37.87
2022-12-17T18:59:30.416Z,40.27
2022-12-17T19:01:57.737Z,44.03
2022-12-17T19:04:25.399Z,58.77
2022-12-17T19:06:53.691Z,58.97
2022-12-17T19:09:26.339Z,56.60
2022-12-17T19:11:56.018Z,58.47
2022-12-17T19:14:23.848Z,47.37
2022-12-17T19:16:54.059Z,44.47
2022-12-17T19:19:22.850Z,33.17
2022-12-17T19:21:51.950Z,59.93
2022-12-17T19:24:21.001Z,69.47
2022-12-17T19:26:48.226Z,68.63
2022-12-17T19:29:16.827Z,66.33
2022-12-17T19:31:43.789Z,51.83
2022-12-17T19:34:12.723Z,40.13
2022-12-17T19:36:40.930Z,65.97
2022-12-17T19:39:12.477Z,59.83
2022-12-17T19:41:39.717Z,50.53
2022-12-17T19:44:10.885Z,45.50
2022-12-17T19:46:38.029Z,58.27
2022-12-17T19:49:05.162Z,69.87
2022-12-17T19:51:33.089Z,63.57
2022-12-17T19:54:06.481Z,60.17
2022-12-17T19:56:35.540Z,65.53
2022-12-17T19:59:06.944Z,54.40
2022-12-17T20:01:39.859Z,44.70
2022-12-17T20:04:06.875Z,51.58
2022-12-17T20:06:35.354Z,51.83
2022-12-17T20:09:04.295Z,50.63
2022-12-17T20:11:34.206Z,48.97
2022-12-17T20:14:16.488Z,48.67
2022-12-17T20:16:55.944Z,52.63
2022-12-17T20:19:31.389Z,51.63
2022-12-17T20:22:00.541Z,51.20
2022-12-17T20:24:31.610Z,53.00
2022-12-17T20:26:59.932Z,71.47
2022-12-17T20:29:27.390Z,56.63
2022-12-17T20:31:55.335Z,67.37
2022-12-17T20:34:23.204Z,84.63
2022-12-17T20:36:51.236Z,76.80
2022-12-17T20:39:23.228Z,81.43
2022-12-17T20:41:53.291Z,70.73
2022-12-17T20:44:20.255Z,70.53
2022-12-17T20:46:48.560Z,80.10
2022-12-17T20:49:17.830Z,92.57
2022-12-17T20:51:44.552Z,77.20
2022-12-17T20:54:11.649Z,67.17
2022-12-17T20:56:40.702Z,77.47
2022-12-17T20:59:13.281Z,83.30
2022-12-17T21:04:12.686Z,48.47
2022-12-17T21:06:42.122Z,64.40
2022-12-17T21:09:09.546Z,54.77
2022-12-17T21:11:38.428Z,56.33
2022-12-17T21:14:15.906Z,61.37
2022-12-17T21:16:44.942Z,52.90
2022-12-17T21:19:15.680Z,63.30
2022-12-17T21:21:42.907Z,58.23
2022-12-17T21:24:15.909Z,62.03
2022-12-17T21:26:44.380Z,58.40
2022-12-17T21:29:11.863Z,52.03
2022-12-17T21:31:48.015Z,56.87
2022-12-17T21:34:18.637Z,64.63
2022-12-17T21:36:45.591Z,61.57
2022-12-17T21:39:14.618Z,64.53
2022-12-17T21:41:44.936Z,55.47
2022-12-17T21:44:15.462Z,61.73
2022-12-17T21:46:43.584Z,60.17
2022-12-17T21:49:13.356Z,67.80
2022-12-17T21:51:40.324Z,66.03
2022-12-17T21:54:08.998Z,63.83
2022-12-17T21:56:36.842Z,70.57
2022-12-17T21:59:03.972Z,59.63
2022-12-17T22:01:33.716Z,69.47
2022-12-17T22:04:02.494Z,63.60
2022-12-17T22:06:36.365Z,61.90
2022-12-17T22:09:22.865Z,68.43
2022-12-17T22:12:19.902Z,65.23
2022-12-17T22:14:47.455Z,61.90
2022-12-17T22:17:14.233Z,59.67
2022-12-17T22:19:41.046Z,55.37
2022-12-17T22:22:07.862Z,63.77
2022-12-17T22:24:36.533Z,58.87
2022-12-17T22:27:03.873Z,57.47
2022-12-17T22:29:50.308Z,59.53
2022-12-17T22:32:35.758Z,64.30
2022-12-17T22:35:45.751Z,53.93
2022-12-17T22:42:29.298Z,58.30
2022-12-17T22:44:28.653Z,55.53
2022-12-17T22:44:44.737Z,53.53
2022-12-17T22:46:18.256Z,53.47
2022-12-17T22:48:45.528Z,56.10
2022-12-17T22:51:15.563Z,48.03
2022-12-17T22:53:44.181Z,50.00
2022-12-17T22:56:22.761Z,45.97
2022-12-17T22:58:58.005Z,47.27
2022-12-17T23:01:24.997Z,54.77
2022-12-17T23:03:55.757Z,59.57
2022-12-17T23:06:22.812Z,54.33
2022-12-17T23:08:50.098Z,52.47
2022-12-17T23:11:23.692Z,48.80
2022-12-17T23:13:51.158Z,57.57
2022-12-17T23:19:12.832Z,48.17
2022-12-17T23:21:39.570Z,56.80
2022-12-17T23:24:06.889Z,46.53
2022-12-17T23:26:36.329Z,47.00
2022-12-17T23:29:08.117Z,50.00
2022-12-17T23:31:37.777Z,49.37
2022-12-17T23:34:05.588Z,58.40
2022-12-17T23:36:32.429Z,59.60
2022-12-17T23:38:59.807Z,62.53
2022-12-17T23:41:28.756Z,64.20
2022-12-17T23:43:56.455Z,64.33
2022-12-17T23:46:25.062Z,61.87
2022-12-17T23:48:52.229Z,73.30
2022-12-17T23:51:20.789Z,64.43
2022-12-17T23:53:47.956Z,65.90
2022-12-17T23:56:23.805Z,74.63
2022-12-17T23:58:59.244Z,62.63
